Timeline UpdatesTrip UpdatesNews PostsPvt Posts♥♥Travel TipsAdmin PostsConv PostsFollowed PostsChat RequestsBlog PostsPNR Posts

Disclaimer
Search
 
 
Sat Nov 1, 2014 04:18:10 ISTHomeTrainsΣChainsAtlasPNRForumGalleryNewsFAQTripsMembersLoginFeedback
No Recent News for this Train
Other Trains in the News **new
Latest...
.
Sat Feb 01, 2014 (02:24PM)
⇐ Return Journey: Train# 18233

18234/Narmada Express

Time-Table HAS CHANGED.
Sep 03 2014 (8:16PM)
Change Departure Station:
Change Arrival Station:
Post a Train Travel TipPost a Train Travel Tip **new
Post a Comment/Question/Picture/VideoPost a Comment/Question/Picture/Video
Pantry/Catering
✕ NO Pantry Car
✓ Catering Avbl
Loco/Rake Reversals
UJN/Ujjain Junction (8); ET/Itarsi Junction (7); KTE/Katni Junction (6);
RSA - Rake Sharing
No RSA..
Rake/Coach Composition
ENG-SLR-GS-GS-GS-S1-S2-S3-S4-S5-S6-S7-S8-S9-S10-A1-HA1-B1-B2-GS-GS-SLR (BSP-KTE), (ET-UJN); ENG-SLR-GS-GS-B2-B1-HA1-A1-S10-S9-S8-S7-S6-S5-S4-S3-S2-S1-GS-GS-GS-SLR (KTE-ET), (UJN,INDB).
Loco
ET WAM 4/6p (BSP-KTE) ET WDP 4/WDM-3A (KTE-ET) ET WAM 4/6p (ET-INDB)
News    PNR    Forum    Time-Table    Availability    Fare Chart    Map    Arr/Dep History    Trips    Gallery    ΣChains    X/O    Timeline    
Travel Time: 12h 43m    41 halts    Distance: 510 km    Avg Speed: 40 km/hr
Type: Mail/Express
Zone: SECR/South East Central
Departs @ 10:00 (Avg on time)
Platform# 8
SMTWTFS
Bilaspur Junction/BSP 
Arrives @ 22:43 (Avg 38m late)
Platform# 2
SMTWTFS
Kareli/KY 

41 halts. 60 intermediate Stations between Bilaspur Junction and Kareli

Show ALL intermediate Stations  Show Old Time-Table

#TrkCodeStation NameX/OArrivesAvgDepartsAvgHaltPFDay#KmSpeedElevZoneAddress
1/==/BSPBilaspur Junction (8)»  -09:55 10:00+0810.043271mSECRBilaspur, Chhattisgarh
2/==/USLUslapur (3)  10:08 10:12+910:10 10:14+92m--18.6115272mSECRBilaspur, Chhattisgarh
3/==/GTKGhutkuX  10:16 10:18+1510:17 10:20+151 2m--116.268288mSECRBilaspur, Chhattisgarh
4/==/KLTRKalmitarX  10:25 10:27+1710:26 10:29+171 2m--124.252300mSECRUsalapur, Chhattisgarh
5/==/KGBKargi Road  10:37 10:38+1610:38 10:40+171 2m--132.061327mSECRBilaspur, Chhattisgarh
6/==%SLKRSalkaroadX  10:47 10:48+1810:48 10:50+201 2m--140.246333mSECRGhutku, Chhattisgarh
7%==%BIGBelgahna  10:59 11:00+2011:00 11:02+211 2m--147.874327mSECRBilaspur, Chhattisgarh
8%==%TGQTenganmada  11:09 11:10+2411:10 11:12+251 2m--157.664367mSECRBelgahna, Chhattisgarh
9%==/KGSKhongsaraX  11:19 11:20+2811:20 11:22+301 2m--166.150378mSECRBhanwar, Chhattisgarh
10/==/BHTKBhanwar TonkX  11:36 11:37+3211:37 11:39+321 2m--178.649455mSECRKhodri, Chhattisgarh
11/==%KOIKhodri  11:52 11:53+3511:53 11:55+371 2m--190.130558mSECRBilaspur, Chhattisgarh
12%==%PNDPendra Road  12:15 12:18+3512:20+375 2m--1101.5101620mSECRBilaspur district, Chhattisgarh
13%==%HRBHarri  12:26 12:25+4312:27+451 2m--1110.079595mSECRVenkatnagar, Madhya Pradesh
14%==%VKRVenkatnagar  12:36 12:35+4812:37+521 2m--1120.665549mSECRPendra Rd, Madhya Pradesh
15%==%NIQNigaura  12:45 12:44+5512:46+591 2m--1128.280547mSECRAnuppur, Madhya Pradesh
16%==%JTIJaithari  12:55 12:54+1:0212:56+1:031 2m--1138.875522mSECRAnuppur, Madhya Pradesh
17%==%CLFChhulhaX  13:04 13:03+1:0513:05+1:051 2m--1147.615488mSECRMauhari, Madhya Pradesh
18%==%APRAnuppur Junction (4)  13:20 13:25+5713:25 13:30+565m--1152.795487mSECRAnuppur, Madhya Pradesh
19/==/AALAmlai  13:34 13:38+1:0013:35 13:40+1:001 2m41165.465495mSECRAnuppur, Madhya Pradesh
20/==/BUHBurhar  13:44 13:48+1:0113:45 13:50+1:011 2m21174.145494mSECRBurhar, Madhya Pradesh
21/==/SNGPSinghpur  13:59 14:08+1:0014:00 14:10+1:001 2m--1187.78502mSECRBurhar, Madhya Pradesh
22/==/SDLShahdolX  14:50 14:55+2515:00 15:05+2510m11193.668466mSECR, Madhya Pradesh
23/==/BRSBirsinghpur  15:34 15:38+3115:35 15:40+311 2m21231.062461mSECRPali, Madhya Pradesh
24/==/NRZBNowrozabad  15:43 15:47+3115:44 15:49+311 2m--1238.267458mSECRNational Highway 78, Madhya Pradesh
25/==/KKIKarkeliX  15:54 15:58+3315:55 16:00+331 2m--1248.250471mSECRUmaria, Madhya Pradesh
26/==/UMRUmaria (3)X  16:10 16:15+3116:15 16:17+325 2m--1260.867469mSECRUmaria, Madhya Pradesh
27/==/CHDChandia Road (1)X  16:30 16:34+3216:31 16:36+321 2m11279.847406mSECRNational Highway 78, Madhya Pradesh
28/==/RPDRupaundX  16:54 16:58+2516:55 17:00+271 2m--1297.116417mSECRJhalwara, Madhya Pradesh
29/==/JLWJhalwaraO  17:41 17:45+117:42 17:47+41 2m--1308.917406mSECRNational Highway 78, Madhya Pradesh
30/==/KTEKatni Junction (6)X18:25+1318:45 18:35+2420 10m31319.453387mWCRKatni, Madhya Pradesh
31|==|NWRNiwar (2)  18:51 18:50+3518:52+381 2m--1332.667412mWCRPipraundh, Madhya Pradesh
32|==|SNRRSansarpur (2)X  19:00 18:59-19:01-1 2m--1340.459436mWCRNational Highway 7, Madhya Pradesh
33|==|SBDSleemanabad Road (2)X  19:09 19:08+4019:10+411 2m--1347.371434mWCRSleemanabad, Madhya Pradesh
34|==|DDCEDundi (2)  19:19 19:18+4219:20+431 2m--1356.890415mWCRDundi, Madhya Pradesh
35|==|SHRSihora Road (2)X  19:30+4619:32+462m--1371.748388mWCRJabalpur, Madhya Pradesh
36|==|GSPRGosalpur (2)  19:46+4419:47+471m--1382.842396mWCRJabalpur, Madhya Pradesh
37|==|DOEDeori (2)  20:02+4320:03+471m--1393.333392mWCRJabalpur, Madhya Pradesh
38|==|ADTLAdhartal (2)X  20:19+4120:20+491m--1402.114393mWCRJabalpur, Madhya Pradesh
39|==|JBPJabalpur Junction (4)X  20:50 20:55+2221:00 21:05+2610m11410.350416mWCRJabalpur, Madhya Pradesh
40|==|MMLMadan Mahal (3)  21:09+3721:11+372m11413.683428mWCRJabalpur, Madhya Pradesh
41|==|SRIDShridham (3)X  21:45 21:47+3321:47 21:49+342m31463.250373mWCRShridham, Madhya Pradesh
42|==|NUNarsinghpur (2)X  22:26+3722:28+372m21494.363365mWCRNarsimhapur, Madhya Pradesh
43|==|KYKareli (2)•  22:44 22:43+3822:45+391 2m21510.186361mWCRKareli, Madhya Pradesh
44|==|GARGadarwara (2)O  23:06 23:05+4223:07+471 2m21538.7104352mWCRNarsinghpur, Madhya Pradesh
45|==|SCKRSalichauka Road (2)O  23:16 23:15+5123:17+511 2m--1552.647355mWCRGadarwara, Madhya Pradesh
46|==|PPIPipariya (3)X  00:02+3100:04+312m22588.066338mWCRPiparia, Madhya Pradesh
47|==|SGPSohagpur (2)  00:20+3300:21+341m--2605.740340mWCRSohagpur, Madhya Pradesh
48|=-|BGTABagratawa (2)X  00:57 00:56+1800:58+201 2m--2628.830338mWCRBagra Tawa, Madhya Pradesh
49|==|ETItarsi Junction (7)X01:50+1202:05+1715m42655.360329mWCRItarsi 461111, Madhya Pradesh
50/==/HBDHoshangabad (2)X  02:24 02:23+2402:25+251 2m--2673.353308mWCRHoshangabad, Madhya Pradesh
51/==/ODGObaidulla Ganj  03:09 03:08+3403:10+341 2m22711.162 WCRObaidullaganj Raisen Dist., Madhya Pradesh
52/==/MDDPMandi Dip (1)X  03:24 03:23+3203:25+321 2m12724.657 WCRMandideep, Madhya Pradesh
53/==/HBJBhopal HabibGanj (5)X  03:43 03:42+3203:44+311 2m12740.712496mWCRHabibGanj, Madhya Pradesh
54/==/BPLBhopal Junction (6)  04:15+1504:25+1610m42747.028497mWCRBhopal, Madhya Pradesh
55/==/BIHBairagarh (2)X  04:46 04:47+3904:47 04:49+381 2m12757.271522mWRBhopal, Madhya Pradesh
56/==/SEHSehore (2)X  05:12 05:13+3905:13 05:15+391 2m12785.773500mWRMP 466001, Madhya Pradesh
57/==/KPPKalapipal (2)  05:38 05:39+4105:39 05:41+401 2m--2814.763487mWRState Highway 41, Madhya Pradesh
58/==/SJPShujalpur (3)  05:52 05:53+4005:53 05:55+401 2m--2827.365453mWRShujalpur, Madhya Pradesh
59/==/AKDAkodia (2)  06:06 06:07+4106:07 06:09+411 2m--2840.477460mWRDist. Shajapur, Madhya Pradesh
60/==/KSHKali Sindh (2)X  06:22 06:23+4206:23 06:25+421 2m--2858.366443mWRShajapur, Madhya Pradesh
61/==/BCHBerchha (2)X  06:35 06:36+4206:36 06:38+421 2m--2870.460490mWRShajapur, Madhya Pradesh
62/==/MKCMaksi Junction (3)X  06:57+4106:59+422m--2889.357513mWRMakshi, Madhya Pradesh
63/==/TANTarana Road  07:08 07:09+4207:09 07:11+421 2m--2898.934498mWRMaksi, Madhya Pradesh
64/==/UJNUjjain Junction (8)08:10+1708:30+2720m62932.322492mWRUjjain 456001, Madhya Pradesh
65/--/VRGVikram Nagar (2)  08:44 08:45+3108:45 08:47+401 2m--2937.825503mWRUjjain, Madhya Pradesh
66/--/KDHAKarchhaX  09:15 09:16+2509:16 09:18+321 2m--2950.028514mWRState Highway 18, Madhya Pradesh
67/--/UDMUndasa Madhopur  09:29 09:30-09:30 09:31-1m--2955.690528mWRState Highway 18, Madhya Pradesh
68/--/NRGRNaranjipur (1)  09:35 09:36+2809:36 09:37+341m12963.144537mWRDewas, Madhya Pradesh
69/--/DWXDewas Junction (2)  09:50+4009:52+432m--2972.731541mWRDewas, Madhya Pradesh
70/--/BLAXBarlaiX  10:18 10:19+3010:19 10:20+371m--2986.535519mWRIndore, Madhya Pradesh
71/--/MGGMangliyagaon (2)  10:36 10:37+3410:37 10:38+341m--2996.553534mWRMangilya, Madhya Pradesh
72/--/LMNRLaxmibai Nagar (3)  10:50 10:51+3410:51 10:52+351m--21008.026543mWRIndore, Madhya Pradesh
73/--/INDBIndore Junction BG (3)  11:00+17-321011.5-552mWRIndore 452001, Madhya Pradesh
Scroll to Top
Scroll to Bottom